Time;durP1;ratioP1;P1;durP2;ratioP2;P2;SDS_P1;SDS_P2;PMS_P1;PMS_P2;Temp;Humidity;BMP_temperature;BMP_pressure;BME280_temperature;BME280_humidity;BME280_pressure;Samples;Min_cycle;Max_cycle;Signal;HPM_P1;HPM_P2
2022/01/22 00:01:51;;;;;;;0.30;0.30;;;1.60;99.90;;;;;;4917667;29;20922;-82
2022/01/22 00:04:18;;;;;;;0.87;0.87;;;1.60;99.90;;;;;;4917675;29;20476;-82
2022/01/22 00:06:46;;;;;;;0.30;0.20;;;1.60;99.90;;;;;;4917810;29;20451;-82
2022/01/22 00:09:13;;;;;;;0.30;0.20;;;1.50;99.90;;;;;;4917890;29;20586;-82
2022/01/22 00:11:50;;;;;;;0.30;0.30;;;1.60;99.90;;;;;;4917717;29;20456;-82
2022/01/22 00:14:26;;;;;;;0.40;0.30;;;1.50;99.90;;;;;;4917603;29;20480;-82
2022/01/22 00:16:53;;;;;;;0.30;0.20;;;1.50;99.90;;;;;;4917474;29;20420;-82
2022/01/22 00:19:20;;;;;;;0.30;0.30;;;1.60;99.90;;;;;;4917300;29;20460;-82
2022/01/22 00:21:48;;;;;;;0.30;0.30;;;1.60;99.90;;;;;;4917560;29;20456;-82
2022/01/22 00:24:15;;;;;;;0.30;0.30;;;1.70;99.90;;;;;;4917525;29;20467;-82
2022/01/22 00:26:43;;;;;;;0.30;0.20;;;1.60;99.90;;;;;;4917851;29;20456;-82
2022/01/22 00:29:11;;;;;;;0.30;0.20;;;1.60;99.90;;;;;;4917635;29;20499;-82
2022/01/22 00:31:39;;;;;;;0.30;0.20;;;1.60;99.90;;;;;;4917555;29;20452;-82
2022/01/22 00:34:06;;;;;;;0.30;0.20;;;1.70;99.90;;;;;;4917558;29;20484;-82
2022/01/22 00:36:33;;;;;;;0.30;0.20;;;1.70;99.90;;;;;;4917122;29;20444;-82
2022/01/22 00:39:02;;;;;;;0.30;0.30;;;1.70;99.90;;;;;;4917320;29;20452;-82
2022/01/22 00:41:28;;;;;;;0.30;0.20;;;1.70;99.90;;;;;;4917299;29;20456;-82
2022/01/22 00:43:55;;;;;;;0.30;0.20;;;1.70;99.90;;;;;;4916922;29;20472;-82
2022/01/22 00:46:22;;;;;;;1.50;0.77;;;1.80;99.90;;;;;;4917235;29;20463;-82
2022/01/22 00:48:49;;;;;;;0.30;0.20;;;1.70;99.90;;;;;;4916158;29;20507;-82
2022/01/22 00:51:16;;;;;;;0.30;0.20;;;1.70;99.90;;;;;;4917195;29;20463;-82
2022/01/22 00:53:43;;;;;;;0.30;0.20;;;1.70;99.90;;;;;;4917121;29;20479;-82
2022/01/22 00:56:11;;;;;;;0.60;0.60;;;1.70;99.90;;;;;;4916863;29;20440;-82
2022/01/22 00:58:38;;;;;;;0.43;0.40;;;1.70;99.90;;;;;;4917184;29;20459;-82
2022/01/22 01:01:05;;;;;;;0.30;0.20;;;1.70;99.90;;;;;;4917154;29;20852;-82
2022/01/22 01:03:34;;;;;;;0.90;0.37;;;1.80;99.90;;;;;;4916705;29;20904;-82
2022/01/22 01:06:00;;;;;;;0.30;0.20;;;1.70;99.90;;;;;;4916794;29;20547;-82
2022/01/22 01:08:28;;;;;;;0.30;0.20;;;1.70;99.90;;;;;;4917072;29;20495;-82
2022/01/22 01:10:55;;;;;;;0.30;0.30;;;1.70;99.90;;;;;;4917028;29;20544;-82
2022/01/22 01:13:25;;;;;;;0.30;0.30;;;1.70;99.90;;;;;;4916755;29;20960;-82
2022/01/22 01:16:02;;;;;;;0.30;0.20;;;1.70;99.90;;;;;;4916913;29;20532;-82
2022/01/22 01:32:30;;;;;;;0.30;0.30;;;1.90;99.90;;;;;;4908072;29;20471;-82
2022/01/22 01:34:58;;;;;;;0.30;0.30;;;1.90;99.90;;;;;;4916797;29;20475;-82
2022/01/22 01:37:25;;;;;;;0.30;0.20;;;1.90;99.90;;;;;;4916768;29;20452;-82
2022/01/22 01:39:59;;;;;;;0.30;0.20;;;1.90;99.90;;;;;;4916790;29;20460;-82
2022/01/22 01:42:33;;;;;;;0.30;0.20;;;2.00;99.90;;;;;;4916775;29;20445;-82
2022/01/22 01:45:03;;;;;;;0.30;0.30;;;2.00;99.90;;;;;;4916453;29;20968;-82
2022/01/22 01:47:30;;;;;;;0.30;0.20;;;2.00;99.90;;;;;;4916510;29;20454;-82
2022/01/22 01:49:57;;;;;;;0.30;0.20;;;2.00;99.90;;;;;;4916152;29;21034;-82
2022/01/22 01:52:32;;;;;;;0.30;0.20;;;2.00;99.90;;;;;;4916839;29;20460;-82
2022/01/22 01:55:03;;;;;;;0.30;0.20;;;2.00;99.90;;;;;;4916312;29;20467;-82
2022/01/22 01:57:38;;;;;;;0.30;0.27;;;2.10;99.90;;;;;;4917009;29;20443;-82
2022/01/22 02:00:14;;;;;;;0.30;0.30;;;2.10;99.90;;;;;;4918328;29;20468;-82
2022/01/22 02:02:41;;;;;;;0.30;0.30;;;2.10;99.90;;;;;;4920028;29;20468;-82
2022/01/22 02:05:11;;;;;;;0.30;0.20;;;2.10;99.90;;;;;;4919853;29;20482;-82
2022/01/22 02:07:39;;;;;;;0.40;0.30;;;2.10;99.90;;;;;;4919603;29;21043;-82
2022/01/22 02:10:08;;;;;;;0.30;0.30;;;2.10;99.90;;;;;;4919968;29;20487;-87
2022/01/22 02:13:01;;;;;;;0.30;0.20;;;2.10;99.90;;;;;;4920161;29;20455;-87
2022/01/22 02:23:50;;;;;;;0.30;0.23;;;2.20;99.90;;;;;;4920189;29;20496;-87
2022/01/22 02:26:18;;;;;;;0.70;0.50;;;2.20;99.90;;;;;;4920201;29;20464;-87
2022/01/22 02:28:48;;;;;;;0.30;0.20;;;2.30;99.90;;;;;;4920007;29;20488;-87
2022/01/22 02:31:21;;;;;;;0.30;0.20;;;2.30;99.90;;;;;;4919997;29;20459;-87
2022/01/22 02:33:54;;;;;;;0.30;0.30;;;2.30;99.90;;;;;;4920275;29;20451;-87
2022/01/22 02:36:26;;;;;;;0.30;0.30;;;2.30;99.90;;;;;;4920048;29;20448;-87
2022/01/22 02:38:59;;;;;;;0.30;0.30;;;2.30;99.90;;;;;;4919829;29;20536;-86
2022/01/22 02:41:26;;;;;;;0.30;0.30;;;2.20;99.90;;;;;;4919844;29;20440;-87
2022/01/22 02:43:54;;;;;;;0.30;0.30;;;2.30;99.90;;;;;;4919676;29;20468;-87
2022/01/22 02:46:24;;;;;;;0.40;0.40;;;2.30;99.90;;;;;;4919626;29;20985;-87
2022/01/22 02:48:51;;;;;;;0.30;0.20;;;2.40;99.90;;;;;;4919462;29;20491;-87
2022/01/22 02:51:18;;;;;;;0.30;0.27;;;2.40;99.90;;;;;;4919352;29;20451;-87
2022/01/22 02:53:48;;;;;;;1.13;0.40;;;2.30;99.90;;;;;;4919256;29;20448;-87
2022/01/22 02:56:15;;;;;;;0.30;0.20;;;2.40;99.90;;;;;;4920203;29;20441;-86
2022/01/22 02:58:42;;;;;;;0.30;0.20;;;2.40;99.90;;;;;;4919220;29;21011;-86
2022/01/22 03:01:09;;;;;;;0.30;0.27;;;2.30;99.90;;;;;;4919335;29;20464;-87
2022/01/22 03:03:38;;;;;;;0.30;0.30;;;2.30;99.90;;;;;;4919359;29;20447;-87
2022/01/22 03:06:05;;;;;;;0.70;0.70;;;2.30;99.90;;;;;;4919287;29;20463;-87
2022/01/22 03:08:33;;;;;;;0.30;0.30;;;2.30;99.90;;;;;;4919143;29;20483;-87
2022/01/22 03:11:05;;;;;;;0.40;0.40;;;2.30;99.90;;;;;;4918198;29;20483;-86
2022/01/22 03:16:32;;;;;;;0.30;0.30;;;2.30;99.90;;;;;;4919389;29;20412;-87
2022/01/22 03:19:04;;;;;;;0.30;0.30;;;2.30;99.90;;;;;;4919348;29;20464;-87
2022/01/22 03:21:39;;;;;;;0.83;0.83;;;2.30;99.90;;;;;;4919792;29;20468;-87
2022/01/22 03:29:39;;;;;;;0.30;0.30;;;2.30;99.90;;;;;;4918864;29;20477;-87
2022/01/22 03:32:07;;;;;;;0.30;0.30;;;2.30;99.90;;;;;;4919003;29;20492;-87
2022/01/22 03:34:40;;;;;;;0.40;0.40;;;2.30;99.90;;;;;;4918953;29;20473;-87
2022/01/22 03:37:07;;;;;;;0.30;0.30;;;2.30;99.90;;;;;;4918949;29;20535;-87
2022/01/22 03:39:35;;;;;;;0.30;0.20;;;2.30;99.90;;;;;;4918811;29;20449;-87
2022/01/22 03:42:03;;;;;;;1.30;0.60;;;2.40;99.90;;;;;;4918748;29;20495;-87
2022/01/22 03:44:30;;;;;;;0.30;0.20;;;2.40;99.90;;;;;;4918497;29;20464;-87
2022/01/22 03:46:57;;;;;;;0.30;0.20;;;2.40;99.90;;;;;;4918673;29;20491;-87
2022/01/22 03:49:24;;;;;;;0.30;0.20;;;2.40;99.90;;;;;;4918074;29;20496;-87
2022/01/22 03:51:50;;;;;;;0.30;0.20;;;2.40;99.90;;;;;;4918423;29;20456;-87
2022/01/22 03:54:17;;;;;;;0.30;0.20;;;2.40;99.90;;;;;;4918467;29;20483;-87
2022/01/22 03:56:46;;;;;;;0.30;0.30;;;2.40;99.90;;;;;;4918435;29;20838;-87
2022/01/22 03:59:15;;;;;;;0.30;0.20;;;2.40;99.90;;;;;;4918672;29;20444;-87
2022/01/22 04:04:31;;;;;;;0.40;0.40;;;2.40;99.90;;;;;;4918570;29;20925;-87
2022/01/22 04:09:45;;;;;;;0.67;0.37;;;2.40;99.90;;;;;;4918503;29;20600;-87
2022/01/22 04:12:14;;;;;;;0.37;0.37;;;2.40;99.90;;;;;;4918241;29;20535;-87
2022/01/22 04:14:48;;;;;;;0.30;0.27;;;2.40;99.90;;;;;;4917846;29;20571;-87
2022/01/22 04:17:25;;;;;;;0.30;0.20;;;2.40;99.90;;;;;;4918764;29;20456;-87
2022/01/22 04:25:24;;;;;;;0.30;0.20;;;2.30;99.90;;;;;;4918288;29;20447;-86
2022/01/22 04:27:53;;;;;;;0.30;0.30;;;2.30;99.90;;;;;;4917898;29;20480;-87
2022/01/22 04:30:22;;;;;;;0.30;0.20;;;2.30;99.90;;;;;;4917993;29;20492;-87
2022/01/22 04:32:49;;;;;;;0.30;0.20;;;2.30;99.90;;;;;;4917965;29;20480;-87
2022/01/22 04:35:17;;;;;;;0.30;0.30;;;2.30;99.90;;;;;;4917737;29;20479;-87
2022/01/22 04:37:43;;;;;;;0.30;0.20;;;2.30;99.90;;;;;;4917977;29;20490;-87
2022/01/22 04:40:11;;;;;;;0.30;0.27;;;2.30;99.90;;;;;;4917531;29;20448;-87
2022/01/22 04:42:39;;;;;;;0.30;0.20;;;2.30;99.90;;;;;;4917626;29;20440;-87
2022/01/22 04:45:14;;;;;;;0.60;0.40;;;2.30;99.90;;;;;;4917742;29;20480;-87
2022/01/22 04:47:51;;;;;;;0.30;0.20;;;2.30;99.90;;;;;;4918239;29;20458;-86
2022/01/22 04:55:50;;;;;;;0.30;0.20;;;2.30;99.90;;;;;;4917517;29;20535;-87
2022/01/22 04:58:17;;;;;;;0.30;0.30;;;2.30;99.90;;;;;;4917534;29;20445;-87
2022/01/22 05:00:45;;;;;;;0.40;0.40;;;2.30;99.90;;;;;;4917573;29;20447;-87
2022/01/22 05:03:15;;;;;;;0.30;0.30;;;2.30;99.90;;;;;;4917756;29;20443;-87
2022/01/22 05:05:42;;;;;;;0.30;0.20;;;2.20;99.90;;;;;;4917681;29;20536;-87
2022/01/22 05:08:09;;;;;;;0.30;0.20;;;2.30;99.90;;;;;;4917138;29;20456;-82
2022/01/22 05:10:36;;;;;;;0.50;0.50;;;2.30;99.90;;;;;;4916696;29;21058;-81
2022/01/22 05:13:02;;;;;;;0.30;0.20;;;2.30;99.90;;;;;;4916816;29;20437;-81
2022/01/22 05:15:29;;;;;;;0.30;0.30;;;2.30;99.90;;;;;;4916898;29;20472;-81
2022/01/22 05:17:57;;;;;;;0.37;0.37;;;2.30;99.90;;;;;;4916982;29;20459;-81
2022/01/22 05:20:29;;;;;;;0.30;0.20;;;2.30;99.90;;;;;;4916932;29;20448;-81
2022/01/22 05:23:00;;;;;;;0.80;0.60;;;2.30;99.90;;;;;;4916936;29;20451;-81
2022/01/22 05:25:32;;;;;;;0.30;0.20;;;2.30;99.90;;;;;;4917020;29;21059;-81
2022/01/22 05:28:48;;;;;;;0.30;0.20;;;2.30;99.90;;;;;;4916653;29;20483;-81
2022/01/22 05:31:21;;;;;;;0.30;0.23;;;2.30;99.90;;;;;;4916293;29;20847;-81
2022/01/22 05:39:21;;;;;;;0.30;0.30;;;2.40;99.90;;;;;;4920590;29;20783;-81
2022/01/22 05:41:48;;;;;;;0.40;0.40;;;2.40;99.90;;;;;;4920087;29;20960;-81
2022/01/22 05:44:15;;;;;;;0.30;0.30;;;2.40;99.90;;;;;;4920503;29;20483;-81
2022/01/22 05:46:42;;;;;;;0.40;0.40;;;2.40;99.90;;;;;;4920099;29;20440;-81
2022/01/22 05:49:09;;;;;;;0.30;0.30;;;2.30;99.90;;;;;;4919729;29;21011;-81
2022/01/22 05:51:40;;;;;;;0.80;0.70;;;2.30;99.90;;;;;;4920134;29;20498;-81
2022/01/22 05:54:32;;;;;;;0.50;0.50;;;2.40;99.90;;;;;;4920326;29;20503;-81
2022/01/22 05:59:44;;;;;;;0.30;0.30;;;2.40;99.90;;;;;;4920219;29;20419;-81
2022/01/22 06:02:13;;;;;;;0.50;0.50;;;2.40;99.90;;;;;;4920025;29;20464;-81
2022/01/22 06:04:40;;;;;;;0.50;0.43;;;2.40;99.90;;;;;;4919864;29;20815;-81
2022/01/22 06:07:09;;;;;;;0.37;0.30;;;2.40;99.90;;;;;;4919959;29;20512;-81
2022/01/22 06:09:39;;;;;;;0.40;0.40;;;2.40;99.90;;;;;;4923043;29;20943;-81
2022/01/22 06:12:16;;;;;;;0.30;0.20;;;2.40;99.90;;;;;;4919875;29;20460;-81
2022/01/22 06:14:43;;;;;;;0.50;0.50;;;2.40;99.90;;;;;;4919842;29;20544;-81
2022/01/22 06:17:10;;;;;;;0.70;0.70;;;2.40;99.90;;;;;;4919558;29;20960;-81
2022/01/22 06:19:37;;;;;;;0.30;0.30;;;2.40;99.90;;;;;;4919747;29;20459;-81
2022/01/22 06:22:04;;;;;;;0.60;0.60;;;2.50;99.90;;;;;;4919426;29;20463;-81
2022/01/22 06:24:32;;;;;;;0.30;0.30;;;2.50;99.90;;;;;;4919539;29;20467;-81
2022/01/22 06:26:59;;;;;;;0.80;0.60;;;2.50;99.90;;;;;;4919351;29;20963;-81
2022/01/22 06:29:26;;;;;;;0.60;0.40;;;2.50;99.90;;;;;;4919284;29;20984;-81
2022/01/22 06:31:52;;;;;;;0.30;0.30;;;2.50;99.90;;;;;;4919450;29;20505;-81
2022/01/22 06:34:19;;;;;;;0.40;0.40;;;2.50;99.90;;;;;;4919415;29;20999;-81
2022/01/22 06:36:46;;;;;;;0.30;0.20;;;2.50;99.90;;;;;;4919892;29;20460;-81
2022/01/22 06:39:15;;;;;;;0.40;0.40;;;2.50;99.90;;;;;;4919109;29;20460;-81
2022/01/22 06:41:46;;;;;;;0.50;0.50;;;2.40;99.90;;;;;;4919352;29;20480;-81
2022/01/22 06:44:15;;;;;;;0.30;0.30;;;2.40;99.90;;;;;;4919452;29;20564;-81
2022/01/22 06:46:43;;;;;;;0.30;0.30;;;2.50;99.90;;;;;;4917729;29;20444;-81
2022/01/22 06:49:09;;;;;;;0.40;0.40;;;2.40;99.90;;;;;;4918975;29;20483;-81
2022/01/22 06:51:36;;;;;;;0.30;0.20;;;2.40;99.90;;;;;;4919096;29;20495;-81
2022/01/22 06:54:05;;;;;;;0.30;0.20;;;2.40;99.90;;;;;;4919112;29;20472;-81
2022/01/22 06:56:32;;;;;;;0.30;0.20;;;2.40;99.90;;;;;;4919129;29;20463;-81
2022/01/22 06:59:00;;;;;;;0.30;0.20;;;2.40;99.90;;;;;;4919073;29;20507;-81
2022/01/22 07:01:28;;;;;;;0.30;0.30;;;2.50;99.90;;;;;;4919455;29;20518;-81
2022/01/22 07:03:55;;;;;;;0.30;0.23;;;2.50;99.90;;;;;;4919317;29;20460;-81
2022/01/22 07:06:22;;;;;;;0.30;0.20;;;2.50;99.90;;;;;;4919032;29;20468;-81
2022/01/22 07:08:49;;;;;;;1.13;0.60;;;2.50;99.90;;;;;;4918944;29;20806;-81
2022/01/22 07:11:15;;;;;;;0.30;0.20;;;2.50;99.90;;;;;;4918706;29;20492;-81
2022/01/22 07:13:43;;;;;;;0.77;0.40;;;2.50;99.90;;;;;;4918725;29;20459;-81
2022/01/22 07:16:11;;;;;;;0.37;0.37;;;2.50;99.90;;;;;;4918424;29;20492;-81
2022/01/22 07:18:38;;;;;;;0.63;0.63;;;2.50;99.90;;;;;;4918720;29;20452;-81
2022/01/22 07:21:14;;;;;;;0.33;0.33;;;2.50;99.90;;;;;;4918659;29;20443;-81
2022/01/22 07:26:24;;;;;;;0.40;0.40;;;2.60;99.90;;;;;;4898610;29;20855;-81
2022/01/22 07:28:51;;;;;;;0.60;0.60;;;2.60;99.90;;;;;;4918500;29;20459;-81
2022/01/22 07:31:23;;;;;;;0.30;0.30;;;2.50;99.90;;;;;;4918148;29;20483;-81
2022/01/22 07:33:49;;;;;;;0.57;0.57;;;2.60;99.90;;;;;;4918301;29;20444;-81
2022/01/22 07:36:16;;;;;;;0.40;0.40;;;2.60;99.90;;;;;;4918113;29;20451;-82
2022/01/22 07:38:43;;;;;;;0.30;0.20;;;2.60;99.90;;;;;;4918324;29;20464;-81
2022/01/22 07:41:12;;;;;;;0.30;0.23;;;2.60;99.90;;;;;;4918321;29;20452;-81
2022/01/22 07:43:40;;;;;;;0.30;0.20;;;2.60;99.90;;;;;;4918196;29;20456;-81
2022/01/22 07:46:07;;;;;;;0.30;0.30;;;2.50;99.90;;;;;;4918588;29;20455;-81
2022/01/22 07:48:36;;;;;;;0.40;0.30;;;2.60;99.90;;;;;;4917742;29;20479;-81
2022/01/22 07:51:02;;;;;;;0.70;0.70;;;2.50;99.90;;;;;;4918165;29;20844;-82
2022/01/22 07:53:29;;;;;;;0.30;0.20;;;2.50;99.90;;;;;;4918092;29;20518;-82
2022/01/22 07:55:56;;;;;;;0.30;0.30;;;2.60;99.90;;;;;;4917711;29;20952;-81
2022/01/22 07:58:23;;;;;;;0.30;0.20;;;2.60;99.90;;;;;;4917557;29;20464;-81
2022/01/22 08:00:49;;;;;;;0.30;0.30;;;2.60;99.90;;;;;;4917912;29;20512;-82
2022/01/22 08:03:16;;;;;;;0.30;0.30;;;2.60;99.90;;;;;;4917771;29;20456;-81
2022/01/22 08:05:44;;;;;;;0.40;0.30;;;2.60;99.90;;;;;;4917558;29;20471;-81
2022/01/22 08:08:11;;;;;;;0.50;0.47;;;2.60;99.90;;;;;;4917609;29;20417;-81
2022/01/22 08:10:38;;;;;;;0.40;0.30;;;2.70;99.90;;;;;;4917747;29;20480;-81
2022/01/22 08:13:04;;;;;;;0.30;0.20;;;2.80;99.90;;;;;;4917782;29;20441;-81
2022/01/22 08:15:32;;;;;;;0.30;0.20;;;2.80;99.90;;;;;;4917712;29;20476;-81
2022/01/22 08:18:00;;;;;;;0.30;0.30;;;2.80;99.90;;;;;;4918144;29;20480;-81
2022/01/22 08:20:27;;;;;;;0.30;0.20;;;2.80;99.90;;;;;;4918240;29;20512;-81
2022/01/22 08:22:55;;;;;;;0.30;0.20;;;2.90;99.90;;;;;;4917884;29;20440;-82
2022/01/22 08:25:22;;;;;;;0.30;0.30;;;2.80;99.90;;;;;;4917541;29;20460;-82
2022/01/22 08:30:30;;;;;;;0.30;0.30;;;2.80;99.90;;;;;;4916158;29;20440;-82
2022/01/22 08:33:09;;;;;;;0.30;0.20;;;2.70;99.90;;;;;;4917027;29;20819;-82
2022/01/22 08:35:54;;;;;;;0.30;0.30;;;2.80;99.90;;;;;;4917052;29;20474;-82
2022/01/22 08:38:24;;;;;;;9.83;0.80;;;2.70;99.90;;;;;;4917384;29;20451;-82
2022/01/22 08:40:55;;;;;;;0.30;0.20;;;2.70;99.90;;;;;;4918050;29;20440;-81
2022/01/22 08:43:22;;;;;;;0.40;0.37;;;2.70;99.90;;;;;;4917135;29;20421;-81
2022/01/22 08:45:50;;;;;;;1.90;0.77;;;2.70;99.90;;;;;;4917181;29;20547;-82
2022/01/22 08:48:16;;;;;;;0.30;0.20;;;2.70;99.90;;;;;;4917014;29;20496;-82
2022/01/22 08:50:43;;;;;;;0.33;0.30;;;2.70;99.90;;;;;;4917398;29;20492;-82
2022/01/22 08:53:10;;;;;;;0.40;0.40;;;2.70;99.90;;;;;;4916960;29;20445;-82
2022/01/22 08:55:38;;;;;;;0.37;0.37;;;2.70;99.90;;;;;;4916953;29;20561;-82
2022/01/22 08:58:05;;;;;;;0.33;0.33;;;2.80;99.90;;;;;;4917236;29;20451;-82
2022/01/22 09:00:32;;;;;;;0.30;0.20;;;2.70;99.90;;;;;;4916941;29;20425;-82
2022/01/22 09:02:59;;;;;;;0.30;0.20;;;2.70;99.90;;;;;;4916878;29;20565;-82
2022/01/22 09:05:32;;;;;;;0.30;0.20;;;2.70;99.90;;;;;;4917113;29;20511;-82
2022/01/22 09:07:59;;;;;;;0.47;0.47;;;2.70;99.90;;;;;;4917806;29;20795;-82
2022/01/22 09:10:26;;;;;;;0.43;0.43;;;2.80;99.90;;;;;;4919144;29;20822;-82
2022/01/22 09:12:54;;;;;;;0.30;0.30;;;2.90;99.90;;;;;;4920974;29;20460;-82
2022/01/22 09:15:22;;;;;;;0.30;0.30;;;2.90;99.90;;;;;;4920845;29;20480;-82
2022/01/22 09:17:48;;;;;;;0.40;0.40;;;2.90;99.90;;;;;;4921076;29;20447;-81
2022/01/22 09:20:30;;;;;;;0.30;0.30;;;2.90;99.90;;;;;;4920802;29;20458;-82
2022/01/22 09:22:58;;;;;;;0.40;0.37;;;3.00;99.90;;;;;;4921072;29;20444;-82
2022/01/22 09:25:24;;;;;;;0.30;0.20;;;3.00;99.90;;;;;;4920516;29;20965;-82
2022/01/22 09:27:51;;;;;;;0.30;0.30;;;3.10;99.90;;;;;;4920471;29;20827;-82
2022/01/22 09:30:19;;;;;;;0.30;0.30;;;3.00;99.90;;;;;;4920592;29;20452;-82
2022/01/22 09:32:46;;;;;;;0.30;0.20;;;3.00;99.90;;;;;;4920558;29;20501;-82
2022/01/22 09:35:13;;;;;;;0.90;0.90;;;3.00;99.90;;;;;;4920469;29;20487;-82
2022/01/22 09:37:40;;;;;;;0.30;0.30;;;3.00;99.90;;;;;;4920542;29;20452;-82
2022/01/22 09:40:08;;;;;;;0.30;0.30;;;3.00;99.90;;;;;;4920473;29;20452;-82
2022/01/22 09:42:35;;;;;;;0.30;0.30;;;2.90;99.90;;;;;;4920438;29;20871;-82
2022/01/22 09:45:03;;;;;;;0.40;0.30;;;2.90;99.90;;;;;;4920139;29;20475;-82
2022/01/22 09:47:32;;;;;;;0.50;0.50;;;2.90;99.90;;;;;;4920231;29;20428;-82
2022/01/22 09:49:59;;;;;;;0.50;0.50;;;3.00;99.90;;;;;;4920222;29;20456;-82
2022/01/22 09:52:26;;;;;;;0.30;0.30;;;3.00;99.90;;;;;;4920226;29;20488;-82
2022/01/22 09:54:53;;;;;;;0.30;0.30;;;3.00;99.90;;;;;;4920106;29;20471;-82
2022/01/22 09:57:20;;;;;;;0.30;0.30;;;3.00;99.90;;;;;;4920125;29;20448;-82
2022/01/22 09:59:47;;;;;;;0.30;0.30;;;3.00;99.90;;;;;;4920124;29;20467;-81
2022/01/22 10:02:16;;;;;;;0.30;0.20;;;3.10;99.90;;;;;;4920104;29;20452;-82
2022/01/22 10:04:48;;;;;;;0.30;0.30;;;3.20;99.90;;;;;;4919995;29;20479;-81
2022/01/22 10:07:17;;;;;;;0.30;0.20;;;3.30;99.90;;;;;;4919864;29;20996;-81
2022/01/22 10:09:55;;;;;;;0.40;0.40;;;3.30;99.90;;;;;;4919851;29;20467;-81
2022/01/22 10:12:23;;;;;;;0.30;0.30;;;3.30;99.90;;;;;;4919888;29;20472;-81
2022/01/22 10:15:11;;;;;;;0.40;0.37;;;3.40;99.90;;;;;;4919525;29;21069;-82
2022/01/22 10:17:46;;;;;;;0.30;0.30;;;3.40;99.90;;;;;;4919884;29;20436;-81
2022/01/22 10:20:36;;;;;;;0.50;0.50;;;3.50;99.90;;;;;;4919295;29;20455;-82
2022/01/22 10:23:06;;;;;;;0.30;0.30;;;3.50;99.90;;;;;;4919504;29;20425;-81
2022/01/22 10:25:37;;;;;;;0.30;0.30;;;3.40;99.90;;;;;;4919889;29;20464;-81
2022/01/22 10:28:06;;;;;;;0.30;0.30;;;3.40;99.90;;;;;;4920218;29;20504;-81
2022/01/22 10:30:39;;;;;;;0.50;0.50;;;3.40;99.90;;;;;;4919648;29;20456;-82
2022/01/22 10:33:26;;;;;;;0.53;0.40;;;3.40;99.90;;;;;;4919557;29;20483;-82
2022/01/22 10:35:55;;;;;;;0.30;0.30;;;3.30;99.90;;;;;;4919463;29;20572;-82
2022/01/22 10:38:22;;;;;;;0.30;0.30;;;3.30;99.90;;;;;;4920058;29;20460;-81
2022/01/22 10:40:50;;;;;;;0.70;0.40;;;3.30;99.90;;;;;;4919200;29;20487;-81
2022/01/22 10:43:22;;;;;;;0.30;0.30;;;3.30;99.90;;;;;;4919084;29;20452;-81
2022/01/22 10:46:07;;;;;;;0.30;0.20;;;3.30;99.90;;;;;;4918974;29;21026;-81
2022/01/22 10:48:35;;;;;;;0.30;0.30;;;3.20;99.90;;;;;;4919500;29;20575;-81
2022/01/22 10:51:09;;;;;;;0.30;0.30;;;3.20;99.90;;;;;;4919433;29;20448;-81
2022/01/22 10:53:44;;;;;;;0.30;0.30;;;3.20;99.90;;;;;;4919137;29;20928;-82
2022/01/22 10:56:13;;;;;;;1.63;1.33;;;3.20;99.90;;;;;;4919152;29;20436;-82
2022/01/22 10:58:56;;;;;;;0.30;0.30;;;3.20;99.90;;;;;;4918915;29;20478;-82
2022/01/22 11:01:25;;;;;;;0.40;0.40;;;3.20;99.90;;;;;;4919032;29;20440;-82
2022/01/22 11:04:10;;;;;;;0.33;0.33;;;3.20;99.90;;;;;;4919097;29;20848;-82
2022/01/22 11:06:40;;;;;;;0.43;0.43;;;3.20;99.90;;;;;;4919271;29;20456;-82
2022/01/22 11:09:07;;;;;;;1.23;1.23;;;3.20;99.90;;;;;;4918556;29;20455;-82
2022/01/22 11:11:37;;;;;;;0.30;0.30;;;3.30;99.90;;;;;;4918505;29;20476;-82
2022/01/22 11:14:05;;;;;;;0.30;0.30;;;3.40;99.90;;;;;;4918756;29;20484;-82
2022/01/22 11:16:32;;;;;;;0.30;0.30;;;3.40;99.90;;;;;;4919267;29;20459;-82
2022/01/22 11:19:00;;;;;;;0.33;0.30;;;3.50;99.90;;;;;;4918770;29;20443;-82
2022/01/22 11:21:27;;;;;;;3.23;0.50;;;3.50;99.90;;;;;;4919554;29;20824;-82
2022/01/22 11:23:55;;;;;;;0.30;0.30;;;3.60;99.90;;;;;;4918621;29;20991;-82
2022/01/22 11:26:21;;;;;;;0.30;0.30;;;3.70;99.90;;;;;;4918326;29;20420;-82
2022/01/22 11:28:52;;;;;;;0.30;0.30;;;3.70;99.90;;;;;;4918600;29;20420;-82
2022/01/22 11:31:22;;;;;;;1.33;1.23;;;3.70;99.90;;;;;;4918815;29;21055;-82
2022/01/22 11:33:51;;;;;;;0.30;0.20;;;3.90;99.90;;;;;;4918021;29;20447;-82
2022/01/22 11:36:23;;;;;;;0.40;0.40;;;4.00;99.90;;;;;;4918789;29;20452;-82
2022/01/22 11:38:56;;;;;;;0.30;0.30;;;4.00;99.90;;;;;;4919029;29;20444;-82
2022/01/22 11:41:24;;;;;;;0.30;0.30;;;4.10;99.90;;;;;;4918509;29;20425;-82
2022/01/22 11:43:59;;;;;;;0.30;0.30;;;4.10;99.90;;;;;;4918375;29;20472;-82
2022/01/22 11:46:30;;;;;;;0.30;0.30;;;4.10;99.90;;;;;;4918268;29;20503;-82
2022/01/22 11:49:21;;;;;;;0.40;0.40;;;4.20;99.90;;;;;;4917982;29;20929;-82
2022/01/22 11:51:51;;;;;;;0.30;0.30;;;4.20;99.90;;;;;;4918104;29;20476;-82
2022/01/22 11:54:21;;;;;;;0.30;0.30;;;4.30;99.90;;;;;;4918051;29;20509;-82
2022/01/22 11:56:52;;;;;;;0.30;0.20;;;4.30;99.90;;;;;;4917825;29;20833;-82
2022/01/22 11:59:26;;;;;;;0.30;0.27;;;4.40;99.90;;;;;;4918050;29;20557;-82
2022/01/22 12:02:07;;;;;;;0.63;0.63;;;4.50;99.90;;;;;;4917707;29;20796;-82
2022/01/22 12:04:52;;;;;;;0.30;0.30;;;4.50;99.90;;;;;;4917587;29;20487;-82
2022/01/22 12:07:21;;;;;;;0.87;0.87;;;4.50;99.90;;;;;;4917542;29;21113;-82
2022/01/22 12:10:19;;;;;;;0.60;0.40;;;4.50;99.90;;;;;;4917971;29;20448;-82
2022/01/22 12:15:49;;;;;;;0.30;0.30;;;4.60;99.90;;;;;;4917750;29;20495;-82
2022/01/22 12:18:19;;;;;;;1.20;1.07;;;4.60;99.90;;;;;;4917492;29;20949;-82
2022/01/22 12:23:50;;;;;;;0.40;0.40;;;4.60;99.90;;;;;;4917678;29;20403;-83
2022/01/22 12:26:44;;;;;;;0.30;0.20;;;4.60;99.90;;;;;;4917835;29;20440;-82
2022/01/22 12:29:37;;;;;;;0.30;0.30;;;4.60;99.90;;;;;;4917946;29;20452;-82
2022/01/22 12:32:24;;;;;;;0.30;0.30;;;4.60;99.90;;;;;;4917643;29;20475;-82
2022/01/22 12:35:17;;;;;;;0.30;0.30;;;4.60;99.90;;;;;;4917380;29;20580;-82
2022/01/22 12:37:50;;;;;;;0.30;0.20;;;4.60;99.90;;;;;;4914665;29;20491;-83
2022/01/22 12:40:30;;;;;;;0.30;0.30;;;4.70;99.90;;;;;;4917650;29;20440;-82
2022/01/22 12:43:05;;;;;;;0.40;0.40;;;4.60;99.90;;;;;;4917342;29;20517;-82
2022/01/22 12:45:35;;;;;;;0.30;0.30;;;4.60;99.90;;;;;;4917260;29;20471;-82
2022/01/22 12:48:03;;;;;;;0.30;0.30;;;4.60;99.90;;;;;;4916894;29;20571;-83
2022/01/22 12:50:34;;;;;;;0.30;0.30;;;4.60;99.90;;;;;;4917056;29;20769;-83
2022/01/22 12:53:09;;;;;;;0.30;0.20;;;4.70;99.90;;;;;;4917150;29;20503;-83
2022/01/22 12:58:36;;;;;;;0.30;0.30;;;4.70;99.90;;;;;;4913477;29;20523;-82
2022/01/22 13:01:09;;;;;;;0.30;0.20;;;4.70;99.90;;;;;;4916964;29;20436;-83
2022/01/22 13:03:37;;;;;;;0.30;0.20;;;4.70;99.90;;;;;;4917229;29;20523;-83
2022/01/22 13:06:04;;;;;;;0.30;0.30;;;4.70;99.90;;;;;;4917006;29;20417;-83
2022/01/22 13:08:33;;;;;;;0.30;0.20;;;4.70;99.90;;;;;;4917121;29;20800;-83
2022/01/22 13:11:03;;;;;;;0.30;0.30;;;4.80;99.90;;;;;;4917252;29;20432;-83
2022/01/22 13:13:32;;;;;;;0.30;0.30;;;4.80;99.90;;;;;;4917019;29;20486;-82
2022/01/22 13:16:06;;;;;;;0.30;0.30;;;4.80;99.90;;;;;;4916984;29;20455;-83
2022/01/22 13:18:44;;;;;;;3.67;1.50;;;4.90;99.90;;;;;;4917113;29;20443;-83
2022/01/22 13:21:12;;;;;;;0.37;0.37;;;4.90;99.90;;;;;;4917424;29;20504;-83
2022/01/22 13:23:40;;;;;;;0.30;0.20;;;4.80;99.90;;;;;;4917179;29;20876;-83
2022/01/22 13:26:07;;;;;;;0.30;0.20;;;4.90;99.90;;;;;;4916604;29;20979;-83
2022/01/22 13:28:38;;;;;;;0.70;0.30;;;4.80;99.90;;;;;;4916932;29;20463;-83
2022/01/22 13:31:15;;;;;;;0.30;0.30;;;4.80;99.90;;;;;;4916929;29;20447;-83
2022/01/22 13:33:50;;;;;;;0.30;0.20;;;4.80;99.90;;;;;;4916469;29;20485;-83
2022/01/22 13:36:25;;;;;;;0.30;0.30;;;4.90;99.90;;;;;;4917585;29;20464;-82
2022/01/22 13:49:52;;;;;;;0.30;0.20;;;4.80;99.90;;;;;;4916468;29;20516;-82
2022/01/22 13:52:20;;;;;;;0.60;0.37;;;4.70;99.90;;;;;;4916819;29;20480;-82
2022/01/22 13:54:49;;;;;;;0.30;0.27;;;4.70;99.90;;;;;;4916365;29;20467;-82
2022/01/22 13:57:18;;;;;;;0.40;0.40;;;4.60;99.90;;;;;;4919725;29;20461;-82
2022/01/22 13:59:48;;;;;;;0.30;0.30;;;4.60;99.90;;;;;;4919843;29;20975;-81
2022/01/22 14:02:30;;;;;;;0.40;0.40;;;4.60;99.90;;;;;;4920082;29;20461;-82
2022/01/22 14:05:03;;;;;;;0.30;0.30;;;4.60;99.90;;;;;;4920013;29;20834;-82
2022/01/22 14:07:33;;;;;;;0.30;0.27;;;4.60;99.90;;;;;;4920339;29;20447;-82
2022/01/22 14:10:04;;;;;;;0.30;0.30;;;4.60;99.90;;;;;;4920075;29;20436;-82
2022/01/22 14:12:36;;;;;;;0.30;0.20;;;4.60;99.90;;;;;;4919890;29;20480;-82
2022/01/22 14:15:12;;;;;;;0.30;0.20;;;4.50;99.90;;;;;;4919760;29;20515;-82
2022/01/22 14:18:06;;;;;;;0.30;0.30;;;4.50;99.90;;;;;;4920073;29;20447;-82
2022/01/22 14:20:35;;;;;;;0.33;0.33;;;4.50;99.90;;;;;;4919472;29;20445;-82
2022/01/22 14:23:04;;;;;;;0.70;0.30;;;4.50;99.90;;;;;;4919866;29;20487;-82
2022/01/22 14:25:32;;;;;;;0.30;0.30;;;4.50;99.90;;;;;;4919827;29;20837;-82
2022/01/22 14:28:05;;;;;;;0.30;0.20;;;4.50;99.90;;;;;;4919450;29;20812;-82
2022/01/22 14:30:41;;;;;;;0.30;0.20;;;4.40;99.90;;;;;;4919426;29;20427;-82
2022/01/22 14:33:09;;;;;;;0.30;0.30;;;4.40;99.90;;;;;;4919559;29;20476;-82
2022/01/22 14:35:37;;;;;;;0.30;0.30;;;4.40;99.90;;;;;;4919171;29;20475;-82